createdAt,value
2023-03-18T00:00:52.351Z,7.38
2023-03-18T00:03:20.489Z,7.95
2023-03-18T00:05:48.816Z,7.63
2023-03-18T00:08:16.997Z,7.03
2023-03-18T00:10:45.141Z,6.13
2023-03-18T00:13:13.496Z,7.43
2023-03-18T00:15:41.489Z,6.68
2023-03-18T00:18:10.070Z,6.95
2023-03-18T00:20:40.459Z,6.07
2023-03-18T00:23:09.036Z,5.50
2023-03-18T00:25:39.161Z,6.93
2023-03-18T00:28:07.827Z,7.50
2023-03-18T00:30:39.154Z,7.60
2023-03-18T00:33:07.486Z,6.82
2023-03-18T00:35:36.629Z,6.53
2023-03-18T00:38:07.803Z,6.10
2023-03-18T00:41:06.345Z,6.20
2023-03-18T00:46:19.004Z,5.47
2023-03-18T00:48:47.648Z,6.05
2023-03-18T00:51:17.862Z,5.15
2023-03-18T00:53:48.277Z,6.90
2023-03-18T00:56:18.291Z,6.75
2023-03-18T00:58:47.740Z,6.88
2023-03-18T01:01:17.987Z,6.97
2023-03-18T01:03:49.719Z,6.90
2023-03-18T01:06:25.370Z,6.78
2023-03-18T01:08:54.325Z,6.10
2023-03-18T01:11:23.643Z,6.38
2023-03-18T01:13:53.244Z,7.32
2023-03-18T01:16:22.989Z,6.38
2023-03-18T01:18:51.286Z,5.43
2023-03-18T01:21:20.224Z,5.45
2023-03-18T01:23:54.673Z,5.47
2023-03-18T01:26:24.444Z,4.78
2023-03-18T01:28:53.538Z,5.30
2023-03-18T01:31:26.467Z,5.38
2023-03-18T01:33:58.601Z,5.85
2023-03-18T01:36:26.472Z,5.72
2023-03-18T01:39:08.485Z,5.13
2023-03-18T01:41:37.936Z,5.22
2023-03-18T01:44:22.516Z,4.95
2023-03-18T01:46:53.690Z,5.40
2023-03-18T01:49:31.245Z,5.40
2023-03-18T01:52:20.634Z,6.32
2023-03-18T01:55:12.911Z,5.32
2023-03-18T01:57:43.295Z,6.07
2023-03-18T02:00:12.785Z,5.70
2023-03-18T02:02:48.298Z,5.93
2023-03-18T02:05:21.296Z,5.95
2023-03-18T02:07:49.829Z,6.40
2023-03-18T02:10:30.660Z,5.57
2023-03-18T02:13:07.973Z,4.80
2023-03-18T02:16:08.160Z,5.95
2023-03-18T02:18:43.399Z,6.20
2023-03-18T02:21:31.234Z,6.40
2023-03-18T02:24:17.977Z,5.72
2023-03-18T02:26:59.873Z,6.30
2023-03-18T02:29:37.467Z,6.30
2023-03-18T02:32:13.701Z,5.90
2023-03-18T02:34:43.424Z,5.57
2023-03-18T02:37:12.093Z,5.25
2023-03-18T02:39:42.426Z,4.97
2023-03-18T02:42:14.671Z,4.55
2023-03-18T02:44:50.058Z,4.57
2023-03-18T02:47:43.117Z,5.35
2023-03-18T02:50:11.761Z,5.15
2023-03-18T02:52:39.924Z,4.00
2023-03-18T02:55:09.179Z,4.15
2023-03-18T02:57:37.298Z,4.70
2023-03-18T03:00:05.962Z,4.90
2023-03-18T03:02:34.130Z,4.40
2023-03-18T03:05:02.385Z,4.60
2023-03-18T03:07:31.478Z,5.13
2023-03-18T03:10:03.595Z,5.15
2023-03-18T03:12:31.759Z,6.82
2023-03-18T03:15:01.273Z,5.55
2023-03-18T03:17:32.089Z,5.30
2023-03-18T03:20:00.417Z,5.32
2023-03-18T03:22:30.401Z,5.13
2023-03-18T03:24:58.752Z,4.65
2023-03-18T03:27:26.570Z,5.15
2023-03-18T03:29:55.925Z,4.35
2023-03-18T03:32:24.283Z,4.63
2023-03-18T03:34:52.438Z,4.25
2023-03-18T03:37:20.238Z,4.40
2023-03-18T03:39:49.245Z,5.03
2023-03-18T03:42:17.066Z,3.70
2023-03-18T03:44:46.683Z,3.90
2023-03-18T03:47:16.466Z,3.80
2023-03-18T03:49:44.209Z,3.90
2023-03-18T03:52:13.103Z,3.40
2023-03-18T03:54:42.816Z,3.55
2023-03-18T03:57:11.521Z,3.83
2023-03-18T03:59:39.525Z,3.70
2023-03-18T04:02:30.714Z,3.88
2023-03-18T04:05:02.772Z,3.97
2023-03-18T04:07:31.881Z,4.03
2023-03-18T04:09:59.627Z,3.78
2023-03-18T04:12:27.297Z,3.85
2023-03-18T04:15:00.859Z,3.63
2023-03-18T04:17:28.930Z,3.28
2023-03-18T04:19:57.085Z,3.83
2023-03-18T04:22:33.722Z,3.47
2023-03-18T04:25:11.427Z,3.60
2023-03-18T04:27:41.795Z,3.85
2023-03-18T04:30:15.617Z,3.70
2023-03-18T04:32:55.483Z,3.42
2023-03-18T04:35:23.895Z,3.15
2023-03-18T04:37:52.672Z,3.40
2023-03-18T04:40:21.392Z,3.90
2023-03-18T04:42:49.477Z,3.45
2023-03-18T04:45:23.067Z,3.55
2023-03-18T04:47:51.452Z,3.60
2023-03-18T04:50:19.578Z,3.35
2023-03-18T04:52:48.532Z,3.80
2023-03-18T04:55:20.745Z,3.30
2023-03-18T04:57:48.893Z,3.13
2023-03-18T05:00:23.920Z,4.13
2023-03-18T05:02:59.826Z,3.90
2023-03-18T05:05:28.145Z,3.40
2023-03-18T05:07:57.025Z,3.20
2023-03-18T05:10:25.246Z,3.97
2023-03-18T05:12:53.013Z,3.30
2023-03-18T05:15:28.862Z,3.00
2023-03-18T05:17:59.777Z,3.38
2023-03-18T05:20:29.056Z,3.00
2023-03-18T05:22:57.379Z,3.00
2023-03-18T05:25:51.895Z,3.55
2023-03-18T05:28:22.051Z,3.10
2023-03-18T05:31:10.293Z,3.17
2023-03-18T05:33:53.347Z,3.63
2023-03-18T05:36:22.552Z,4.07
2023-03-18T05:38:59.531Z,3.28
2023-03-18T05:41:27.802Z,3.20
2023-03-18T05:43:55.644Z,3.95
2023-03-18T05:46:23.933Z,4.10
2023-03-18T05:49:15.122Z,3.40
2023-03-18T05:52:04.574Z,4.05
2023-03-18T05:54:41.966Z,6.18
2023-03-18T05:57:13.402Z,6.80
2023-03-18T05:59:41.515Z,6.25
2023-03-18T06:02:11.935Z,4.72
2023-03-18T06:04:40.446Z,4.90
2023-03-18T06:07:08.554Z,5.25
2023-03-18T06:09:37.080Z,5.25
2023-03-18T06:12:06.483Z,10.00
2023-03-18T06:14:34.279Z,10.63
2023-03-18T06:17:04.724Z,7.22
2023-03-18T06:19:32.550Z,5.80
2023-03-18T06:22:00.473Z,4.53
2023-03-18T06:24:28.857Z,4.32
2023-03-18T06:26:57.915Z,4.72
2023-03-18T06:29:26.862Z,4.72
2023-03-18T06:31:58.752Z,3.85
2023-03-18T06:34:27.772Z,4.45
2023-03-18T06:36:57.153Z,5.22
2023-03-18T06:39:25.403Z,5.63
2023-03-18T06:41:55.074Z,5.22
2023-03-18T06:44:53.347Z,3.97
2023-03-18T06:47:28.629Z,3.67
2023-03-18T06:49:58.497Z,4.53
2023-03-18T06:52:38.581Z,3.08
2023-03-18T06:55:11.977Z,3.05
2023-03-18T06:57:43.505Z,3.85
2023-03-18T07:00:12.937Z,2.65
2023-03-18T07:02:43.526Z,2.42
2023-03-18T07:05:14.904Z,3.10
2023-03-18T07:07:44.273Z,3.00
2023-03-18T07:10:22.807Z,3.30
2023-03-18T07:12:52.535Z,4.43
2023-03-18T07:15:24.883Z,4.82
2023-03-18T07:17:55.376Z,4.05
2023-03-18T07:20:24.398Z,3.53
2023-03-18T07:22:52.726Z,3.65
2023-03-18T07:25:22.531Z,3.10
2023-03-18T07:27:52.297Z,3.38
2023-03-18T07:30:20.320Z,3.88
2023-03-18T07:32:48.338Z,4.40
2023-03-18T07:35:16.352Z,4.78
2023-03-18T07:37:44.300Z,4.03
2023-03-18T07:40:13.223Z,4.70
2023-03-18T07:42:42.450Z,4.10
2023-03-18T07:45:10.769Z,4.43
2023-03-18T07:47:39.127Z,4.35
2023-03-18T07:50:08.861Z,3.60
2023-03-18T07:52:37.554Z,3.88
2023-03-18T07:55:06.275Z,3.90
2023-03-18T07:57:34.221Z,4.30
2023-03-18T08:00:02.382Z,5.10
2023-03-18T08:02:41.604Z,5.60
2023-03-18T08:05:10.156Z,5.15
2023-03-18T08:07:38.573Z,4.72
2023-03-18T08:10:07.159Z,4.55
2023-03-18T08:12:49.336Z,4.25
2023-03-18T08:15:20.766Z,4.05
2023-03-18T08:17:52.998Z,4.07
2023-03-18T08:20:21.735Z,3.97
2023-03-18T08:22:50.269Z,3.88
2023-03-18T08:25:18.480Z,3.55
2023-03-18T08:27:46.387Z,3.83
2023-03-18T08:30:15.224Z,3.85
2023-03-18T08:32:45.320Z,3.70
2023-03-18T08:35:13.671Z,3.58
2023-03-18T08:37:42.938Z,3.50
2023-03-18T08:40:11.950Z,3.58
2023-03-18T08:42:39.856Z,4.03
2023-03-18T08:45:08.501Z,4.15
2023-03-18T08:47:37.841Z,4.20
2023-03-18T08:50:06.388Z,4.30
2023-03-18T08:52:34.215Z,4.78
2023-03-18T08:55:02.503Z,5.50
2023-03-18T08:57:30.266Z,5.25
2023-03-18T08:59:58.346Z,5.88
2023-03-18T09:02:26.505Z,6.72
2023-03-18T09:04:55.966Z,6.70
2023-03-18T09:07:23.737Z,7.70
2023-03-18T09:09:52.251Z,8.60
2023-03-18T09:12:20.337Z,8.13
2023-03-18T09:14:49.339Z,7.68
2023-03-18T09:17:17.196Z,7.13
2023-03-18T09:19:45.686Z,6.68
2023-03-18T09:22:13.451Z,7.43
2023-03-18T09:24:41.870Z,8.10
2023-03-18T09:27:10.589Z,6.63
2023-03-18T09:29:38.643Z,5.05
2023-03-18T09:32:08.615Z,4.03
2023-03-18T09:34:37.861Z,3.75
2023-03-18T09:37:05.734Z,3.55
2023-03-18T09:39:33.598Z,3.60
2023-03-18T09:42:05.644Z,3.55
2023-03-18T09:44:36.087Z,3.35
2023-03-18T09:47:10.901Z,3.85
2023-03-18T09:50:15.835Z,3.95
2023-03-18T09:52:48.466Z,3.53
2023-03-18T09:55:27.771Z,4.22
2023-03-18T09:58:03.655Z,4.10
2023-03-18T10:00:38.641Z,4.30
2023-03-18T10:03:11.043Z,4.90
2023-03-18T10:05:54.640Z,4.90
2023-03-18T10:08:42.486Z,3.70
2023-03-18T10:11:35.619Z,4.63
2023-03-18T10:14:07.461Z,4.22
2023-03-18T10:16:49.143Z,4.43
2023-03-18T10:19:17.161Z,4.85
2023-03-18T10:21:54.760Z,4.90
2023-03-18T10:24:49.028Z,4.82
2023-03-18T10:27:35.150Z,6.28
2023-03-18T10:30:30.583Z,5.93
2023-03-18T10:33:15.619Z,5.15
2023-03-18T10:35:57.672Z,5.68
2023-03-18T10:38:34.380Z,5.20
2023-03-18T10:41:02.690Z,4.93
2023-03-18T10:43:33.640Z,4.68
2023-03-18T10:46:07.673Z,4.40
2023-03-18T10:48:42.560Z,4.15
2023-03-18T10:51:34.015Z,3.78
2023-03-18T10:54:10.254Z,4.70
2023-03-18T10:56:38.555Z,4.45
2023-03-18T10:59:15.441Z,4.43
2023-03-18T11:01:47.465Z,4.85
2023-03-18T11:04:19.256Z,4.20
2023-03-18T11:06:52.009Z,4.78
2023-03-18T11:09:22.769Z,4.57
2023-03-18T11:11:56.992Z,4.05
2023-03-18T11:14:32.355Z,4.38
2023-03-18T11:17:05.942Z,4.82
2023-03-18T11:19:39.778Z,4.65
2023-03-18T11:22:10.593Z,5.13
2023-03-18T11:24:39.940Z,6.70
2023-03-18T11:27:14.591Z,5.95
2023-03-18T11:29:46.796Z,6.57
2023-03-18T11:32:33.248Z,5.40
2023-03-18T11:35:03.058Z,6.13
2023-03-18T11:37:35.771Z,5.40
2023-03-18T11:40:14.544Z,5.65
2023-03-18T11:42:44.206Z,4.65
2023-03-18T11:45:50.985Z,4.70
2023-03-18T11:48:43.399Z,4.93
2023-03-18T11:51:38.178Z,5.00
2023-03-18T11:54:28.794Z,6.90
2023-03-18T11:57:23.805Z,16.55
2023-03-18T12:00:20.259Z,41.22
2023-03-18T12:03:25.943Z,29.85
2023-03-18T12:06:09.071Z,22.08
2023-03-18T12:08:51.692Z,14.70
2023-03-18T12:11:38.630Z,12.73
2023-03-18T12:14:31.702Z,9.77
2023-03-18T12:17:04.053Z,9.18
2023-03-18T12:19:42.605Z,8.40
2023-03-18T12:22:19.264Z,7.13
2023-03-18T12:25:09.263Z,6.88
2023-03-18T12:27:58.882Z,7.10
2023-03-18T12:30:45.636Z,10.88
2023-03-18T12:33:19.430Z,13.40
2023-03-18T12:36:09.297Z,13.20
2023-03-18T12:38:40.289Z,12.57
2023-03-18T12:41:14.029Z,12.25
2023-03-18T12:44:01.148Z,10.05
2023-03-18T12:47:06.834Z,9.18
2023-03-18T12:49:45.228Z,8.65
2023-03-18T12:52:23.469Z,9.77
2023-03-18T12:54:59.782Z,11.88
2023-03-18T12:57:49.348Z,12.63
2023-03-18T13:00:27.387Z,10.23
2023-03-18T13:03:09.433Z,9.80
2023-03-18T13:05:47.606Z,8.27
2023-03-18T13:08:27.868Z,8.73
2023-03-18T13:11:36.357Z,9.75
2023-03-18T13:14:39.357Z,8.68
2023-03-18T13:17:40.221Z,7.10
2023-03-18T13:20:31.987Z,7.07
2023-03-18T13:23:08.854Z,7.30
2023-03-18T13:25:57.879Z,7.22
2023-03-18T13:28:43.994Z,8.02
2023-03-18T13:31:50.649Z,10.13
2023-03-18T13:34:26.734Z,9.32
2023-03-18T13:37:27.126Z,8.43
2023-03-18T13:40:10.395Z,6.15
2023-03-18T13:42:40.178Z,5.47
2023-03-18T13:45:18.990Z,6.18
2023-03-18T13:47:46.791Z,7.85
2023-03-18T13:50:20.379Z,8.32
2023-03-18T13:52:49.708Z,8.65
2023-03-18T13:55:29.846Z,18.67
2023-03-18T13:58:23.932Z,19.60
2023-03-18T14:00:54.768Z,15.93
2023-03-18T14:03:30.761Z,13.32
2023-03-18T14:06:10.561Z,9.60
2023-03-18T14:08:47.422Z,6.97
2023-03-18T14:11:19.843Z,6.03
2023-03-18T14:13:47.749Z,5.65
2023-03-18T14:16:21.212Z,5.50
2023-03-18T14:19:19.302Z,5.03
2023-03-18T14:21:53.343Z,5.80
2023-03-18T14:24:26.189Z,5.38
2023-03-18T14:27:06.831Z,5.10
2023-03-18T14:29:47.895Z,5.15
2023-03-18T14:32:34.936Z,4.93
2023-03-18T14:35:49.482Z,5.22
2023-03-18T14:38:49.851Z,4.95
2023-03-18T14:41:30.122Z,4.80
2023-03-18T14:44:22.534Z,4.47
2023-03-18T14:46:58.520Z,4.90
2023-03-18T14:49:32.752Z,4.90
2023-03-18T14:52:06.199Z,4.97
2023-03-18T14:54:42.769Z,4.55
2023-03-18T14:57:11.245Z,4.47
2023-03-18T14:59:38.940Z,4.50
2023-03-18T15:02:15.388Z,4.03
2023-03-18T15:04:53.202Z,3.70
2023-03-18T15:07:27.442Z,4.00
2023-03-18T15:09:55.292Z,4.93
2023-03-18T15:12:28.830Z,4.68
2023-03-18T15:14:56.851Z,4.72
2023-03-18T15:17:27.651Z,4.10
2023-03-18T15:20:00.734Z,4.18
2023-03-18T15:22:33.068Z,3.72
2023-03-18T15:25:08.359Z,4.20
2023-03-18T15:27:37.077Z,4.63
2023-03-18T15:30:11.914Z,4.63
2023-03-18T15:32:50.236Z,4.35
2023-03-18T15:35:29.252Z,5.40
2023-03-18T15:38:11.205Z,4.70
2023-03-18T15:40:54.420Z,4.90
2023-03-18T15:43:43.287Z,5.28
2023-03-18T15:46:18.902Z,5.55
2023-03-18T15:48:54.944Z,4.43
2023-03-18T15:51:27.640Z,3.47
2023-03-18T15:53:59.327Z,4.82
2023-03-18T15:56:31.727Z,4.75
2023-03-18T15:59:14.780Z,4.93
2023-03-18T16:01:42.951Z,4.82
2023-03-18T16:04:17.170Z,4.65
2023-03-18T16:06:45.426Z,4.20
2023-03-18T16:09:25.361Z,3.67
2023-03-18T16:11:58.412Z,3.72
2023-03-18T16:14:33.489Z,3.72
2023-03-18T16:17:01.850Z,4.07
2023-03-18T16:19:31.219Z,4.60
2023-03-18T16:22:00.802Z,4.25
2023-03-18T16:24:28.642Z,5.22
2023-03-18T16:26:57.698Z,3.80
2023-03-18T16:29:32.022Z,3.53
2023-03-18T16:32:01.000Z,4.05
2023-03-18T16:34:28.940Z,4.13
2023-03-18T16:36:57.251Z,4.85
2023-03-18T16:39:36.261Z,5.07
2023-03-18T16:42:06.857Z,4.82
2023-03-18T16:44:35.849Z,4.93
2023-03-18T16:47:03.626Z,5.03
2023-03-18T16:49:34.656Z,7.45
2023-03-18T16:52:06.983Z,11.98
2023-03-18T16:54:34.920Z,12.45
2023-03-18T16:57:04.717Z,11.93
2023-03-18T16:59:35.425Z,10.20
2023-03-18T17:02:17.556Z,9.05
2023-03-18T17:04:45.286Z,7.30
2023-03-18T17:07:14.201Z,7.15
2023-03-18T17:09:42.180Z,7.28
2023-03-18T17:12:12.223Z,6.90
2023-03-18T17:14:51.986Z,7.95
2023-03-18T17:17:28.122Z,7.03
2023-03-18T17:19:57.316Z,6.85
2023-03-18T17:22:28.426Z,5.93
2023-03-18T17:24:56.983Z,5.18
2023-03-18T17:27:40.283Z,4.95
2023-03-18T17:30:36.391Z,4.07
2023-03-18T17:33:16.865Z,4.28
2023-03-18T17:35:44.910Z,4.32
2023-03-18T17:38:15.125Z,4.00
2023-03-18T17:40:43.626Z,4.50
2023-03-18T17:43:19.422Z,3.97
2023-03-18T17:45:47.969Z,3.78
2023-03-18T17:48:20.868Z,4.72
2023-03-18T17:50:51.798Z,3.95
2023-03-18T17:53:44.291Z,4.03
2023-03-18T17:56:14.966Z,3.30
2023-03-18T17:59:02.033Z,4.00
2023-03-18T18:01:30.422Z,4.00
2023-03-18T18:04:00.021Z,4.22
2023-03-18T18:06:29.823Z,3.83
2023-03-18T18:09:02.570Z,4.10
2023-03-18T18:11:32.862Z,3.85
2023-03-18T18:14:22.039Z,4.13
2023-03-18T18:16:50.771Z,4.15
2023-03-18T18:19:19.799Z,4.43
2023-03-18T18:21:49.520Z,4.60
2023-03-18T18:24:28.010Z,5.45
2023-03-18T18:26:56.926Z,4.68
2023-03-18T18:29:28.476Z,4.05
2023-03-18T18:31:59.446Z,5.00
2023-03-18T18:34:27.590Z,4.20
2023-03-18T18:36:55.477Z,5.78
2023-03-18T18:39:23.369Z,4.93
2023-03-18T18:41:51.512Z,4.80
2023-03-18T18:44:19.700Z,4.38
2023-03-18T18:46:47.810Z,4.35
2023-03-18T18:49:22.825Z,4.43
2023-03-18T18:51:55.553Z,4.10
2023-03-18T18:54:24.664Z,4.65
2023-03-18T18:56:53.409Z,4.20
2023-03-18T18:59:23.267Z,5.03
2023-03-18T19:01:52.376Z,4.90
2023-03-18T19:04:21.998Z,5.78
2023-03-18T19:06:51.896Z,5.68
2023-03-18T19:09:24.016Z,6.60
2023-03-18T19:11:53.473Z,6.13
2023-03-18T19:14:27.497Z,5.88
2023-03-18T19:17:00.788Z,5.85
2023-03-18T19:19:31.313Z,5.68
2023-03-18T19:21:59.179Z,5.88
2023-03-18T19:24:32.747Z,6.57
2023-03-18T19:27:04.357Z,7.10
2023-03-18T19:29:35.480Z,7.82
2023-03-18T19:32:03.512Z,8.93
2023-03-18T19:34:32.610Z,8.77
2023-03-18T19:37:03.216Z,10.27
2023-03-18T19:39:30.949Z,9.82
2023-03-18T19:41:58.951Z,10.40
2023-03-18T19:44:27.335Z,9.02
2023-03-18T19:46:59.510Z,8.57
2023-03-18T19:49:39.392Z,8.23
2023-03-18T19:52:28.062Z,7.10
2023-03-18T19:54:57.811Z,6.88
2023-03-18T19:57:29.008Z,6.80
2023-03-18T19:59:58.630Z,6.50
2023-03-18T20:02:27.980Z,7.50
2023-03-18T20:04:58.550Z,7.57
2023-03-18T20:07:29.781Z,9.02
2023-03-18T20:09:58.960Z,8.57
2023-03-18T20:12:44.677Z,8.90
2023-03-18T20:15:22.081Z,8.73
2023-03-18T20:17:52.412Z,8.68
2023-03-18T20:20:24.076Z,8.48
2023-03-18T20:22:56.711Z,8.13
2023-03-18T20:25:36.262Z,7.72
2023-03-18T20:28:06.497Z,8.02
2023-03-18T20:30:39.212Z,7.03
2023-03-18T20:33:08.078Z,7.60
2023-03-18T20:35:39.359Z,6.25
2023-03-18T20:38:33.516Z,7.43
2023-03-18T20:41:02.018Z,8.07
2023-03-18T20:43:31.042Z,8.20
2023-03-18T20:46:01.108Z,8.10
2023-03-18T20:48:29.008Z,8.48
2023-03-18T20:50:58.206Z,7.85
2023-03-18T20:53:31.838Z,9.10
2023-03-18T20:56:02.236Z,8.95
2023-03-18T20:58:31.471Z,9.30
2023-03-18T21:00:59.654Z,9.00
2023-03-18T21:03:34.776Z,9.32
2023-03-18T21:06:04.282Z,8.75
2023-03-18T21:08:33.922Z,9.02
2023-03-18T21:11:02.855Z,8.43
2023-03-18T21:13:34.109Z,8.93
2023-03-18T21:16:04.354Z,8.85
2023-03-18T21:18:32.208Z,9.50
2023-03-18T21:21:01.322Z,9.60
2023-03-18T21:23:32.051Z,9.60
2023-03-18T21:26:01.567Z,9.75
2023-03-18T21:28:31.068Z,9.90
2023-03-18T21:30:59.598Z,9.77
2023-03-18T21:33:31.385Z,8.90
2023-03-18T21:35:59.957Z,9.23
2023-03-18T21:38:30.720Z,9.98
2023-03-18T21:41:01.027Z,9.93
2023-03-18T21:43:34.046Z,9.75
2023-03-18T21:46:03.489Z,9.93
2023-03-18T21:48:31.934Z,9.68
2023-03-18T21:51:00.134Z,9.07
2023-03-18T21:53:28.977Z,9.82
2023-03-18T21:55:56.786Z,9.27
2023-03-18T21:58:27.761Z,9.45
2023-03-18T22:00:58.412Z,9.20
2023-03-18T22:03:29.863Z,11.07
2023-03-18T22:05:58.005Z,8.95
2023-03-18T22:08:26.601Z,8.75
2023-03-18T22:10:54.475Z,9.07
2023-03-18T22:13:24.198Z,8.07
2023-03-18T22:15:54.334Z,9.75
2023-03-18T22:18:22.873Z,8.93
2023-03-18T22:20:51.753Z,9.50
2023-03-18T22:23:28.616Z,9.85
2023-03-18T22:25:57.937Z,10.60
2023-03-18T22:28:28.303Z,12.95
2023-03-18T22:30:57.108Z,14.43
2023-03-18T22:33:28.957Z,14.23
2023-03-18T22:35:57.348Z,13.85
2023-03-18T22:38:26.862Z,12.60
2023-03-18T22:40:57.176Z,13.05
2023-03-18T22:43:32.222Z,11.27
2023-03-18T22:46:03.812Z,11.45
2023-03-18T22:48:31.782Z,10.35
2023-03-18T22:51:01.273Z,10.93
2023-03-18T22:53:42.844Z,10.38
2023-03-18T22:56:14.493Z,10.98
2023-03-18T22:58:42.664Z,11.40
2023-03-18T23:01:16.577Z,11.07
2023-03-18T23:03:44.950Z,10.07
2023-03-18T23:06:17.000Z,11.50
2023-03-18T23:08:45.810Z,10.00
2023-03-18T23:11:14.193Z,10.93
2023-03-18T23:13:48.136Z,10.73
2023-03-18T23:16:18.308Z,11.00
2023-03-18T23:18:46.617Z,10.93
2023-03-18T23:21:22.115Z,10.38
2023-03-18T23:23:50.716Z,11.50
2023-03-18T23:26:20.994Z,11.00
2023-03-18T23:28:49.717Z,11.98
2023-03-18T23:31:17.861Z,10.30
2023-03-18T23:33:45.855Z,11.77
2023-03-18T23:36:14.146Z,11.85
2023-03-18T23:38:42.753Z,11.32
2023-03-18T23:41:11.097Z,11.35
2023-03-18T23:43:39.038Z,11.38
2023-03-18T23:46:07.622Z,11.60
2023-03-18T23:48:36.008Z,11.65
2023-03-18T23:51:04.038Z,11.80
2023-03-18T23:53:32.272Z,10.40
2023-03-18T23:56:00.056Z,11.23
2023-03-18T23:58:27.923Z,10.18
